Time;durP1;ratioP1;P1;durP2;ratioP2;P2;SDS_P1;SDS_P2;PMS_P1;PMS_P2;Temp;Humidity;BMP_temperature;BMP_pressure;BME280_temperature;BME280_humidity;BME280_pressure;Samples;Min_cycle;Max_cycle;Signal;HPM_P1;HPM_P2
2022/10/04 00:01:50;;;;;;;4.53;1.70;;;14.50;80.00;;;;;;4961986;28;20713;-79
2022/10/04 00:04:27;;;;;;;6.20;1.40;;;14.50;80.10;;;;;;4964222;28;20197;-79
2022/10/04 00:06:59;;;;;;;4.20;1.50;;;14.50;80.20;;;;;;4963869;28;20245;-79
2022/10/04 00:09:33;;;;;;;6.23;1.97;;;14.40;80.50;;;;;;4963616;28;20198;-78
2022/10/04 00:12:03;;;;;;;4.97;1.90;;;14.40;80.50;;;;;;4959114;28;20202;-78
2022/10/04 00:14:35;;;;;;;2.67;1.37;;;14.40;80.30;;;;;;4970032;28;20225;-79
2022/10/04 00:17:11;;;;;;;4.40;1.70;;;14.30;80.50;;;;;;4967214;28;20198;-77
2022/10/04 00:19:45;;;;;;;4.37;1.63;;;14.30;80.50;;;;;;4965539;28;20197;-77
2022/10/04 00:22:19;;;;;;;2.93;1.40;;;14.30;80.60;;;;;;4963333;28;20226;-79
2022/10/04 00:25:21;;;;;;;2.57;1.30;;;14.30;80.50;;;;;;4960197;28;20190;-79
2022/10/04 00:28:30;;;;;;;3.13;1.53;;;14.20;80.40;;;;;;4968489;28;20209;-78
2022/10/04 00:31:24;;;;;;;2.37;1.37;;;14.30;80.50;;;;;;4960384;28;20198;-78
2022/10/04 00:33:55;;;;;;;3.10;1.50;;;14.20;80.40;;;;;;4961638;28;20194;-77
2022/10/04 00:36:50;;;;;;;2.70;1.50;;;14.30;80.40;;;;;;4965621;28;20557;-77
2022/10/04 00:39:42;;;;;;;2.47;1.50;;;14.30;80.60;;;;;;4966792;28;20200;-78
2022/10/04 00:42:48;;;;;;;3.67;1.77;;;14.20;80.60;;;;;;4967536;28;20198;-78
2022/10/04 00:45:26;;;;;;;4.90;1.90;;;14.30;80.80;;;;;;4961839;28;20948;-78
2022/10/04 00:48:23;;;;;;;2.60;1.47;;;14.20;81.60;;;;;;4966313;28;20253;-77
2022/10/04 00:51:02;;;;;;;3.77;2.27;;;14.20;81.40;;;;;;4963317;28;20562;-78
2022/10/04 00:53:44;;;;;;;3.20;1.43;;;14.20;81.40;;;;;;4965781;28;20307;-78
2022/10/04 00:56:20;;;;;;;3.77;1.73;;;14.20;81.40;;;;;;4966663;28;20225;-77
2022/10/04 00:59:12;;;;;;;2.80;1.30;;;14.30;81.40;;;;;;4973139;28;20622;-78
2022/10/04 01:01:42;;;;;;;3.17;1.63;;;14.30;81.30;;;;;;4971592;28;20256;-77
2022/10/04 01:04:23;;;;;;;4.30;1.87;;;14.30;81.10;;;;;;4975914;28;20200;-79
2022/10/04 01:06:52;;;;;;;4.67;1.97;;;14.30;80.90;;;;;;4974282;28;20287;-78
2022/10/04 01:09:22;;;;;;;3.73;2.00;;;14.30;80.90;;;;;;4976085;28;20201;-78
2022/10/04 01:11:59;;;;;;;6.47;2.00;;;14.30;80.80;;;;;;4963625;28;20662;-78
2022/10/04 01:14:33;;;;;;;2.53;1.37;;;14.30;80.70;;;;;;4974479;28;20221;-78
2022/10/04 01:17:03;;;;;;;2.90;1.60;;;14.30;80.70;;;;;;4972385;28;20202;-78
2022/10/04 01:19:33;;;;;;;4.50;1.40;;;14.30;80.70;;;;;;4966457;28;20213;-77
2022/10/04 01:22:11;;;;;;;2.73;1.53;;;14.20;80.70;;;;;;4971779;28;20284;-78
2022/10/04 01:24:42;;;;;;;6.03;1.53;;;14.20;80.70;;;;;;4970053;28;20197;-77
2022/10/04 01:27:32;;;;;;;2.20;1.30;;;14.20;80.70;;;;;;4972988;28;20540;-77
2022/10/04 01:30:02;;;;;;;4.03;1.70;;;14.20;80.80;;;;;;4969090;28;20186;-77
2022/10/04 01:32:31;;;;;;;3.30;1.67;;;14.20;80.80;;;;;;4964836;28;20217;-77
2022/10/04 01:35:00;;;;;;;4.00;1.60;;;14.20;80.90;;;;;;4971920;28;20663;-79
2022/10/04 01:37:28;;;;;;;5.37;1.70;;;14.20;80.80;;;;;;4971223;28;20289;-78
2022/10/04 01:39:58;;;;;;;3.57;1.53;;;14.20;80.80;;;;;;4969907;28;20229;-79
2022/10/04 01:42:32;;;;;;;3.60;1.90;;;14.20;80.80;;;;;;4967871;28;20198;-78
2022/10/04 01:45:07;;;;;;;3.37;1.40;;;14.20;80.70;;;;;;4970934;28;20232;-77
2022/10/04 01:47:41;;;;;;;2.63;1.37;;;14.20;80.80;;;;;;4972007;28;20311;-80
2022/10/04 01:50:14;;;;;;;2.60;1.43;;;14.20;80.80;;;;;;4971598;28;20225;-79
2022/10/04 01:52:47;;;;;;;3.23;1.50;;;14.20;80.80;;;;;;4969457;28;20249;-79
2022/10/04 01:55:21;;;;;;;3.37;1.30;;;14.20;80.90;;;;;;4968339;28;20185;-80
2022/10/04 01:57:52;;;;;;;7.17;1.70;;;14.10;80.80;;;;;;4967155;28;20684;-77
2022/10/04 02:00:23;;;;;;;5.93;1.20;;;14.10;80.80;;;;;;4967907;28;20249;-79
2022/10/04 02:02:57;;;;;;;2.07;1.30;;;14.10;80.80;;;;;;4969143;28;20193;-80
2022/10/04 02:05:31;;;;;;;3.53;1.80;;;14.10;80.80;;;;;;4962882;28;20725;-79
2022/10/04 02:08:04;;;;;;;3.03;1.17;;;14.10;80.80;;;;;;4970670;28;20213;-80
2022/10/04 02:10:38;;;;;;;4.63;1.63;;;14.00;80.80;;;;;;4966600;28;20321;-81
2022/10/04 02:13:17;;;;;;;3.07;1.33;;;14.00;80.80;;;;;;4971211;28;20217;-80
2022/10/04 02:15:46;;;;;;;3.40;1.60;;;14.00;80.80;;;;;;4966947;28;20189;-80
2022/10/04 02:18:17;;;;;;;1.97;1.33;;;14.00;80.80;;;;;;4969430;28;20196;-80
2022/10/04 02:20:47;;;;;;;3.47;1.10;;;14.00;80.80;;;;;;4968184;28;20308;-80
2022/10/04 02:23:18;;;;;;;3.87;1.53;;;14.00;80.80;;;;;;4971041;28;20210;-79
2022/10/04 02:25:48;;;;;;;2.63;1.30;;;13.90;80.80;;;;;;4969477;28;20236;-78
2022/10/04 02:28:18;;;;;;;2.07;1.30;;;14.00;81.00;;;;;;4967843;28;20276;-80
2022/10/04 02:33:32;;;;;;;3.00;1.50;;;13.90;81.00;;;;;;4968575;28;20281;-80
2022/10/04 02:36:01;;;;;;;3.27;1.30;;;13.90;81.10;;;;;;4960509;28;20198;-80
2022/10/04 02:38:35;;;;;;;10.37;2.03;;;13.90;81.10;;;;;;4969483;28;20190;-80
2022/10/04 02:41:12;;;;;;;2.40;1.40;;;13.90;81.10;;;;;;4973617;28;20231;-80
2022/10/04 02:43:46;;;;;;;8.00;1.47;;;13.90;81.10;;;;;;4971265;28;20229;-80
2022/10/04 02:46:22;;;;;;;3.37;1.40;;;13.90;81.20;;;;;;4968275;28;20626;-79
2022/10/04 02:48:55;;;;;;;3.57;1.40;;;13.90;81.30;;;;;;4965969;28;20220;-79
2022/10/04 02:51:28;;;;;;;2.60;1.37;;;13.90;81.30;;;;;;4961650;28;20255;-78
2022/10/04 02:54:03;;;;;;;3.17;1.43;;;13.90;81.40;;;;;;4965318;28;20285;-79
2022/10/04 02:56:34;;;;;;;3.03;1.60;;;13.80;81.40;;;;;;4966402;28;20277;-78
2022/10/04 02:59:04;;;;;;;4.30;1.67;;;13.80;81.40;;;;;;4963164;28;20225;-78
2022/10/04 03:01:47;;;;;;;3.37;1.57;;;13.80;81.60;;;;;;4965099;28;20320;-79
2022/10/04 03:04:16;;;;;;;3.50;1.60;;;13.80;81.60;;;;;;4967210;28;20205;-78
2022/10/04 03:06:45;;;;;;;4.47;1.67;;;13.80;81.70;;;;;;4966303;28;20198;-79
2022/10/04 03:09:15;;;;;;;2.90;1.47;;;13.80;81.80;;;;;;4967471;28;22283;-80
2022/10/04 03:11:46;;;;;;;3.57;1.70;;;13.80;81.90;;;;;;4966516;28;21443;-79
2022/10/04 03:14:19;;;;;;;4.10;2.10;;;13.70;82.00;;;;;;4965671;28;20194;-78
2022/10/04 03:16:52;;;;;;;4.47;1.87;;;13.70;82.20;;;;;;4965350;28;20329;-79
2022/10/04 03:19:22;;;;;;;3.17;1.80;;;13.70;82.30;;;;;;4964576;28;20249;-79
2022/10/04 03:21:54;;;;;;;5.33;1.40;;;13.60;82.20;;;;;;4964697;28;20280;-78
2022/10/04 03:24:31;;;;;;;2.47;1.37;;;13.60;82.20;;;;;;4965600;28;20195;-79
2022/10/04 03:27:05;;;;;;;2.90;1.50;;;13.60;82.50;;;;;;4965245;28;20216;-78
2022/10/04 03:29:34;;;;;;;4.17;1.43;;;13.60;82.50;;;;;;4964654;28;20244;-79
2022/10/04 03:32:04;;;;;;;5.80;1.57;;;13.60;82.50;;;;;;4966034;28;20666;-80
2022/10/04 03:34:36;;;;;;;4.67;1.70;;;13.60;82.60;;;;;;4964435;28;20194;-78
2022/10/04 03:37:08;;;;;;;5.83;2.00;;;13.50;82.90;;;;;;4968183;28;20222;-79
2022/10/04 03:39:40;;;;;;;3.77;1.70;;;13.50;82.80;;;;;;4966154;28;20678;-79
2022/10/04 03:42:14;;;;;;;6.60;1.90;;;13.50;82.90;;;;;;4966221;28;20382;-79
2022/10/04 03:44:45;;;;;;;5.53;2.20;;;13.50;82.90;;;;;;4963620;28;20219;-79
2022/10/04 03:47:19;;;;;;;5.93;2.57;;;13.50;82.90;;;;;;4963864;28;20628;-78
2022/10/04 03:49:49;;;;;;;9.43;2.07;;;13.40;83.00;;;;;;4969069;28;20214;-78
2022/10/04 03:52:23;;;;;;;4.97;2.27;;;13.40;84.00;;;;;;4967353;28;20248;-80
2022/10/04 03:54:54;;;;;;;3.10;1.67;;;13.40;83.10;;;;;;4963474;28;20249;-79
2022/10/04 03:57:23;;;;;;;6.83;1.93;;;13.40;83.30;;;;;;4961211;28;20669;-79
2022/10/04 03:59:52;;;;;;;4.90;2.00;;;13.40;83.40;;;;;;4965636;28;20201;-79
2022/10/04 04:02:31;;;;;;;4.30;1.90;;;13.30;83.50;;;;;;4960465;28;20250;-79
2022/10/04 04:05:08;;;;;;;4.83;1.93;;;13.30;83.80;;;;;;4960897;28;20650;-79
2022/10/04 04:07:41;;;;;;;5.20;1.63;;;13.30;83.60;;;;;;4966448;28;20604;-79
2022/10/04 04:10:18;;;;;;;9.40;1.77;;;13.30;83.60;;;;;;4963520;28;20237;-78
2022/10/04 04:12:55;;;;;;;7.87;2.07;;;13.30;83.60;;;;;;4965760;28;20276;-79
2022/10/04 04:15:28;;;;;;;3.20;1.57;;;13.30;83.50;;;;;;4966968;28;20611;-79
2022/10/04 04:18:01;;;;;;;4.77;1.60;;;13.40;83.60;;;;;;4961909;28;20210;-79
2022/10/04 04:20:32;;;;;;;7.87;2.00;;;13.30;83.40;;;;;;4959665;28;20286;-79
2022/10/04 04:23:04;;;;;;;5.97;1.87;;;13.40;83.30;;;;;;4965125;28;20249;-79
2022/10/04 04:25:37;;;;;;;5.30;1.57;;;13.40;83.30;;;;;;4967080;28;20260;-78
2022/10/04 04:28:20;;;;;;;3.30;1.97;;;13.40;83.40;;;;;;4962439;28;20198;-79
2022/10/04 04:30:52;;;;;;;4.17;2.37;;;13.40;83.60;;;;;;4964855;28;20210;-79
2022/10/04 04:33:28;;;;;;;3.73;2.03;;;13.30;83.70;;;;;;4963354;28;20225;-79
2022/10/04 04:36:04;;;;;;;9.70;2.63;;;13.30;83.80;;;;;;4965221;28;20249;-79
2022/10/04 04:38:34;;;;;;;5.47;2.20;;;13.30;83.80;;;;;;4961544;28;20599;-78
2022/10/04 04:41:09;;;;;;;7.93;2.03;;;13.30;83.80;;;;;;4966880;28;20186;-79
2022/10/04 04:43:43;;;;;;;10.47;2.23;;;13.40;83.90;;;;;;4964034;28;20256;-78
2022/10/04 04:46:12;;;;;;;6.00;1.87;;;13.40;84.00;;;;;;4964299;28;20213;-79
2022/10/04 04:49:01;;;;;;;14.27;2.07;;;13.40;84.00;;;;;;4964732;28;20194;-80
2022/10/04 04:51:31;;;;;;;5.80;1.70;;;13.50;84.10;;;;;;4969138;28;20196;-79
2022/10/04 04:54:04;;;;;;;2.30;1.50;;;13.50;84.00;;;;;;4966142;28;20358;-78
2022/10/04 04:56:34;;;;;;;2.73;1.60;;;13.60;83.80;;;;;;4970404;28;20196;-78
2022/10/04 04:59:07;;;;;;;5.77;2.20;;;13.60;83.70;;;;;;4967455;28;20245;-79
2022/10/04 05:01:41;;;;;;;3.97;1.90;;;13.60;83.80;;;;;;4965867;28;20651;-79
2022/10/04 05:04:18;;;;;;;5.13;2.00;;;13.60;83.90;;;;;;4968092;28;20799;-78
2022/10/04 05:06:48;;;;;;;10.33;2.40;;;13.60;83.80;;;;;;4965880;28;20232;-77
2022/10/04 05:09:24;;;;;;;4.83;2.53;;;13.60;83.80;;;;;;4963480;28;20202;-79
2022/10/04 05:11:56;;;;;;;9.43;2.43;;;13.70;83.80;;;;;;4966546;28;20567;-79
2022/10/04 05:14:26;;;;;;;7.17;2.30;;;13.70;84.10;;;;;;4970278;28;20221;-79
2022/10/04 05:16:55;;;;;;;7.10;2.10;;;13.70;84.10;;;;;;4967322;28;20190;-79
2022/10/04 05:19:30;;;;;;;5.50;2.07;;;13.70;84.10;;;;;;4970906;28;20198;-79
2022/10/04 05:22:01;;;;;;;3.87;1.93;;;13.70;84.10;;;;;;4944175;28;20768;-81
2022/10/04 05:24:31;;;;;;;3.40;1.70;;;13.70;83.80;;;;;;4950772;29;20182;-77
2022/10/04 05:27:02;;;;;;;9.70;1.70;;;13.70;83.70;;;;;;4946945;29;20261;-79
2022/10/04 05:29:36;;;;;;;2.90;1.73;;;13.70;83.60;;;;;;4946184;28;20360;-77
2022/10/04 05:32:15;;;;;;;5.23;1.73;;;13.70;83.80;;;;;;4948908;29;20245;-79
2022/10/04 05:34:48;;;;;;;5.97;1.83;;;13.70;83.80;;;;;;4941845;28;20215;-78
2022/10/04 05:37:42;;;;;;;3.53;1.90;;;13.80;83.80;;;;;;4940598;29;20281;-80
2022/10/04 05:40:29;;;;;;;7.27;2.07;;;13.90;83.80;;;;;;4940782;28;20254;-79
2022/10/04 05:42:58;;;;;;;3.87;2.03;;;13.90;83.90;;;;;;4943864;28;20282;-79
2022/10/04 05:45:31;;;;;;;6.30;1.67;;;14.00;83.70;;;;;;4952144;28;20694;-79
2022/10/04 05:48:02;;;;;;;5.07;1.40;;;14.00;83.50;;;;;;4950852;28;20222;-79
2022/10/04 05:50:34;;;;;;;2.93;1.37;;;14.10;83.40;;;;;;4944997;29;20699;-78
2022/10/04 05:53:23;;;;;;;3.90;1.73;;;14.20;83.20;;;;;;4949599;29;20270;-79
2022/10/04 05:56:06;;;;;;;3.50;1.70;;;14.20;83.00;;;;;;4948522;29;20199;-79
2022/10/04 05:58:50;;;;;;;3.57;1.60;;;14.30;82.70;;;;;;4949805;29;20667;-78
2022/10/04 06:01:36;;;;;;;5.30;1.73;;;14.30;82.60;;;;;;4949847;28;20199;-79
2022/10/04 06:04:24;;;;;;;4.87;1.70;;;14.30;82.50;;;;;;4950392;28;20277;-79
2022/10/04 06:06:59;;;;;;;5.33;1.67;;;14.40;82.50;;;;;;4946651;29;20203;-78
2022/10/04 06:09:51;;;;;;;2.30;1.30;;;14.40;82.40;;;;;;4947042;28;20710;-79
2022/10/04 06:12:32;;;;;;;4.33;1.50;;;14.50;82.30;;;;;;4945871;28;20273;-80
2022/10/04 06:15:25;;;;;;;4.53;1.50;;;14.60;82.20;;;;;;4949088;29;20195;-80
2022/10/04 06:18:25;;;;;;;3.90;1.60;;;14.70;82.20;;;;;;4946843;29;20254;-79
2022/10/04 06:21:06;;;;;;;4.83;1.77;;;14.70;82.10;;;;;;4948830;29;20222;-80
2022/10/04 06:23:43;;;;;;;4.90;1.57;;;14.80;82.10;;;;;;4951491;29;20671;-81
2022/10/04 06:26:21;;;;;;;4.93;1.50;;;14.90;82.10;;;;;;4949715;29;20655;-80
2022/10/04 06:28:54;;;;;;;4.10;1.63;;;14.90;81.60;;;;;;4945925;28;20226;-79
2022/10/04 06:32:01;;;;;;;3.53;1.30;;;15.00;81.50;;;;;;4948447;29;20620;-79
2022/10/04 06:35:09;;;;;;;4.60;1.27;;;15.10;80.90;;;;;;4940970;29;20230;-79
2022/10/04 06:38:03;;;;;;;4.93;1.93;;;15.20;80.90;;;;;;4948947;29;20198;-80
2022/10/04 06:41:06;;;;;;;8.10;1.90;;;15.30;80.70;;;;;;4950593;29;20195;-79
2022/10/04 06:44:03;;;;;;;3.70;1.33;;;15.40;80.50;;;;;;4928413;28;20234;-80
2022/10/04 06:46:41;;;;;;;4.87;1.63;;;15.50;80.60;;;;;;4947457;29;20652;-81
2022/10/04 06:49:25;;;;;;;3.50;1.47;;;15.60;80.50;;;;;;4945535;28;20193;-80
2022/10/04 06:52:18;;;;;;;3.27;1.40;;;15.70;80.50;;;;;;4952448;28;20247;-82
2022/10/04 06:55:05;;;;;;;4.43;1.70;;;15.80;80.40;;;;;;4956043;28;20245;-79
2022/10/04 06:58:07;;;;;;;3.40;1.40;;;15.90;80.30;;;;;;4950395;29;20259;-80
2022/10/04 07:00:41;;;;;;;4.37;1.20;;;16.00;80.20;;;;;;4943531;29;20195;-80
2022/10/04 07:03:14;;;;;;;3.23;1.60;;;16.10;79.80;;;;;;4951069;29;20196;-84
2022/10/04 07:05:47;;;;;;;7.63;1.73;;;16.10;79.70;;;;;;4948298;29;20218;-81
2022/10/04 07:08:31;;;;;;;10.63;1.77;;;16.20;79.60;;;;;;4942153;28;20195;-80
2022/10/04 07:11:05;;;;;;;5.57;1.77;;;16.30;79.70;;;;;;4949814;29;20455;-81
2022/10/04 07:13:44;;;;;;;5.90;1.63;;;16.40;79.70;;;;;;4944689;29;20714;-81
2022/10/04 07:16:27;;;;;;;3.57;1.80;;;16.50;79.70;;;;;;4948036;28;20249;-81
2022/10/04 07:19:00;;;;;;;6.03;1.20;;;16.60;79.50;;;;;;4950184;29;20606;-80
2022/10/04 07:21:56;;;;;;;5.30;1.40;;;16.70;79.40;;;;;;4934401;28;20257;-81
2022/10/04 07:24:31;;;;;;;2.80;1.40;;;16.80;79.10;;;;;;4949234;28;20686;-80
2022/10/04 07:27:03;;;;;;;2.43;1.20;;;16.80;78.80;;;;;;4948036;28;20266;-80
2022/10/04 07:29:35;;;;;;;3.57;1.20;;;16.90;78.60;;;;;;4948955;28;20250;-82
2022/10/04 07:32:16;;;;;;;2.23;0.80;;;17.00;78.50;;;;;;4945562;29;20222;-82
2022/10/04 07:34:50;;;;;;;2.50;1.00;;;17.10;77.70;;;;;;4947370;29;20222;-82
2022/10/04 07:37:20;;;;;;;7.00;0.97;;;17.20;76.70;;;;;;4950764;29;20194;-85
2022/10/04 07:39:59;;;;;;;2.23;0.90;;;17.20;75.80;;;;;;4943729;29;20651;-83
2022/10/04 07:42:31;;;;;;;5.23;1.03;;;17.30;75.70;;;;;;4951778;29;20194;-85
2022/10/04 07:45:12;;;;;;;3.07;1.20;;;17.40;75.60;;;;;;4953295;28;20194;-82
2022/10/04 07:47:41;;;;;;;3.43;1.07;;;17.50;75.50;;;;;;4948763;29;20648;-80
2022/10/04 07:50:28;;;;;;;4.00;0.83;;;17.50;75.10;;;;;;4940015;29;20217;-79
2022/10/04 07:53:02;;;;;;;2.37;1.00;;;17.60;75.20;;;;;;4938545;29;20231;-79
2022/10/04 07:55:51;;;;;;;2.60;1.00;;;17.60;75.20;;;;;;4943312;29;20205;-79
2022/10/04 07:58:29;;;;;;;5.27;1.20;;;17.70;75.00;;;;;;4944810;29;20202;-81
2022/10/04 08:01:05;;;;;;;2.17;1.20;;;17.70;74.30;;;;;;4943987;29;20190;-79
2022/10/04 08:04:00;;;;;;;1.33;0.80;;;17.80;73.70;;;;;;4940428;28;20257;-79
2022/10/04 08:06:36;;;;;;;2.00;0.97;;;17.80;73.80;;;;;;4943313;28;21486;-81
2022/10/04 08:09:25;;;;;;;6.27;1.10;;;17.80;73.30;;;;;;4940613;29;20188;-80
2022/10/04 08:12:06;;;;;;;2.87;0.90;;;17.80;73.20;;;;;;4945739;29;20265;-79
2022/10/04 08:14:49;;;;;;;1.77;1.30;;;17.80;73.20;;;;;;4942353;29;20726;-79
2022/10/04 08:17:27;;;;;;;2.45;1.02;;;17.90;73.10;;;;;;4953095;28;20492;-79
2022/10/04 08:20:07;;;;;;;3.43;1.00;;;18.00;71.80;;;;;;4948077;28;20199;-79
2022/10/04 08:22:57;;;;;;;1.83;0.90;;;18.00;72.10;;;;;;4951440;29;20703;-79
2022/10/04 08:25:32;;;;;;;3.67;1.03;;;18.10;71.80;;;;;;4948510;29;20199;-79
2022/10/04 08:31:13;;;;;;;2.33;0.80;;;18.20;71.50;;;;;;4944241;28;20245;-78
2022/10/04 08:33:56;;;;;;;1.97;0.93;;;18.20;70.90;;;;;;4955043;28;20198;-78
2022/10/04 08:36:42;;;;;;;2.37;0.70;;;18.30;70.90;;;;;;4946388;28;20203;-79
2022/10/04 08:39:24;;;;;;;2.07;1.00;;;18.30;70.90;;;;;;4939890;29;20195;-78
2022/10/04 08:42:33;;;;;;;1.67;0.87;;;18.40;70.50;;;;;;4948333;28;20783;-76
2022/10/04 08:45:23;;;;;;;1.03;0.70;;;18.40;69.40;;;;;;4944382;29;20195;-76
2022/10/04 08:48:44;;;;;;;5.37;1.43;;;18.50;68.70;;;;;;4946603;29;20198;-76
2022/10/04 08:51:50;;;;;;;1.30;0.80;;;18.60;68.60;;;;;;4946912;28;20218;-75
2022/10/04 08:54:55;;;;;;;1.57;0.90;;;18.60;67.30;;;;;;4939054;28;20229;-77
2022/10/04 08:57:45;;;;;;;3.53;1.30;;;18.70;66.80;;;;;;4948648;29;20257;-76
2022/10/04 09:00:20;;;;;;;3.93;0.80;;;18.70;66.10;;;;;;4940718;29;20202;-76
2022/10/04 09:03:13;;;;;;;1.63;0.80;;;18.80;66.70;;;;;;4952050;28;20717;-75
2022/10/04 09:05:56;;;;;;;3.53;0.90;;;18.80;66.50;;;;;;4945890;29;20203;-75
2022/10/04 09:09:10;;;;;;;3.93;0.80;;;18.90;66.00;;;;;;4949934;28;20206;-76
2022/10/04 09:12:14;;;;;;;3.33;0.80;;;18.90;65.60;;;;;;4931262;29;20304;-77
2022/10/04 09:15:08;;;;;;;1.33;0.70;;;19.00;66.00;;;;;;4935924;29;20190;-75
2022/10/04 09:17:49;;;;;;;2.33;0.70;;;19.10;65.70;;;;;;4949722;28;20199;-75
2022/10/04 09:20:23;;;;;;;1.60;0.70;;;19.20;65.20;;;;;;4953121;28;20274;-75
2022/10/04 09:23:21;;;;;;;1.50;0.80;;;19.20;64.80;;;;;;4954330;28;20202;-76
2022/10/04 09:26:05;;;;;;;1.80;0.70;;;19.20;64.50;;;;;;4950240;28;20627;-75
2022/10/04 09:29:23;;;;;;;2.57;0.80;;;19.30;64.50;;;;;;4955331;28;20230;-73
2022/10/04 09:32:17;;;;;;;4.67;1.00;;;19.40;63.90;;;;;;4928490;29;20273;-76
2022/10/04 09:35:05;;;;;;;0.90;0.60;;;19.40;63.30;;;;;;4948180;29;20191;-76
2022/10/04 09:37:49;;;;;;;2.73;0.73;;;19.40;63.40;;;;;;4953310;28;20647;-76
2022/10/04 09:40:40;;;;;;;1.23;0.73;;;19.50;62.50;;;;;;4952972;28;20198;-74
2022/10/04 09:43:50;;;;;;;5.13;0.90;;;19.50;62.40;;;;;;4946497;29;20219;-76
2022/10/04 09:46:43;;;;;;;2.03;0.60;;;19.50;62.00;;;;;;4922514;28;20223;-75
2022/10/04 09:49:34;;;;;;;2.93;0.90;;;19.60;62.30;;;;;;4953578;29;20676;-76
2022/10/04 09:52:15;;;;;;;2.13;0.60;;;19.70;60.50;;;;;;4943738;29;20230;-76
2022/10/04 09:55:14;;;;;;;1.93;0.83;;;19.70;60.00;;;;;;4944796;29;20671;-76
2022/10/04 09:58:00;;;;;;;2.47;0.70;;;19.80;58.90;;;;;;4952890;28;20199;-75
2022/10/04 10:00:36;;;;;;;0.80;0.60;;;19.80;57.60;;;;;;4953231;29;20230;-75
2022/10/04 10:03:29;;;;;;;1.83;1.00;;;19.90;58.50;;;;;;4952486;28;20252;-75
2022/10/04 10:06:17;;;;;;;1.00;0.73;;;19.90;58.00;;;;;;4952746;28;20226;-76
2022/10/04 10:09:06;;;;;;;2.13;0.70;;;20.00;59.10;;;;;;4939850;29;20214;-76
2022/10/04 10:15:04;;;;;;;3.53;1.00;;;20.10;59.40;;;;;;4951094;28;20191;-77
2022/10/04 10:17:40;;;;;;;1.40;0.60;;;20.20;58.30;;;;;;4950652;29;20202;-75
2022/10/04 10:20:52;;;;;;;3.10;1.10;;;20.30;59.10;;;;;;4945695;29;20190;-78
2022/10/04 10:23:31;;;;;;;3.10;0.88;;;20.30;58.40;;;;;;4948024;28;20257;-78
2022/10/04 10:26:37;;;;;;;1.13;0.60;;;20.30;58.00;;;;;;4952271;29;20261;-76
2022/10/04 10:29:38;;;;;;;1.57;0.70;;;20.40;57.60;;;;;;4952049;28;20182;-77
2022/10/04 10:32:44;;;;;;;1.77;0.80;;;20.30;56.60;;;;;;4949250;29;20760;-77
2022/10/04 10:35:42;;;;;;;1.55;0.60;;;20.30;57.20;;;;;;4932942;28;20647;-77
2022/10/04 10:38:34;;;;;;;1.60;0.70;;;20.40;57.30;;;;;;4952019;28;20675;-77
2022/10/04 10:41:29;;;;;;;0.90;0.55;;;20.50;57.40;;;;;;4952199;28;20202;-77
2022/10/04 10:44:25;;;;;;;5.75;0.80;;;20.50;57.40;;;;;;4953357;28;20195;-77
2022/10/04 10:47:07;;;;;;;4.33;1.57;;;20.60;57.00;;;;;;4950428;29;20202;-77
2022/10/04 10:49:48;;;;;;;1.85;0.73;;;20.60;56.30;;;;;;4945326;29;20477;-77
2022/10/04 10:52:46;;;;;;;1.63;0.80;;;20.60;55.60;;;;;;4954358;28;20273;-77
2022/10/04 10:55:30;;;;;;;2.10;0.90;;;20.70;55.70;;;;;;4950936;28;20206;-76
2022/10/04 10:58:33;;;;;;;2.85;0.90;;;20.80;55.80;;;;;;4943690;28;20188;-79
2022/10/04 11:01:26;;;;;;;1.20;0.60;;;20.90;55.70;;;;;;4945214;28;20730;-78
2022/10/04 11:04:34;;;;;;;3.05;0.80;;;20.90;55.40;;;;;;4942639;29;20651;-78
2022/10/04 11:07:30;;;;;;;0.70;0.60;;;21.00;55.60;;;;;;4934812;29;20187;-78
2022/10/04 11:10:34;;;;;;;1.58;0.77;;;21.10;55.40;;;;;;4937020;28;20195;-78
2022/10/04 11:13:25;;;;;;;3.80;1.10;;;21.10;54.60;;;;;;4948351;29;20206;-79
2022/10/04 11:16:33;;;;;;;1.30;0.70;;;21.20;55.10;;;;;;4949328;29;20243;-78
2022/10/04 11:19:52;;;;;;;3.42;0.85;;;21.20;55.20;;;;;;4950195;29;20233;-78
2022/10/04 11:22:54;;;;;;;2.25;0.60;;;21.30;55.40;;;;;;4947901;29;20561;-78
2022/10/04 11:25:46;;;;;;;1.38;0.73;;;21.30;55.10;;;;;;4938240;29;20206;-78
2022/10/04 11:28:23;;;;;;;1.92;0.90;;;21.40;54.20;;;;;;4953429;28;20207;-77
2022/10/04 11:31:31;;;;;;;1.83;1.10;;;21.40;54.30;;;;;;4951664;28;20234;-79
2022/10/04 11:34:24;;;;;;;1.52;0.90;;;21.40;53.40;;;;;;4951270;28;20230;-78
2022/10/04 11:37:05;;;;;;;2.88;0.75;;;21.50;51.90;;;;;;4951624;28;20828;-78
2022/10/04 11:39:59;;;;;;;3.97;0.82;;;21.50;52.90;;;;;;4946545;28;20824;-78
2022/10/04 11:42:41;;;;;;;3.33;0.90;;;21.60;53.70;;;;;;4951591;28;20874;-79
2022/10/04 11:45:37;;;;;;;1.45;0.75;;;21.70;53.00;;;;;;4951625;28;20723;-79
2022/10/04 11:48:19;;;;;;;1.10;0.80;;;21.80;53.00;;;;;;4953231;28;20217;-80
2022/10/04 11:51:26;;;;;;;2.05;1.02;;;22.00;52.60;;;;;;4948471;28;20194;-79
2022/10/04 11:54:26;;;;;;;1.17;0.77;;;22.00;52.20;;;;;;4928588;28;20318;-80
2022/10/04 11:57:18;;;;;;;3.95;0.90;;;22.00;53.40;;;;;;4922418;29;20206;-80
2022/10/04 11:59:59;;;;;;;2.00;1.35;;;21.90;52.70;;;;;;4944550;29;20202;-80
2022/10/04 12:02:55;;;;;;;2.75;1.15;;;21.90;52.30;;;;;;4943107;28;20225;-78
2022/10/04 12:06:05;;;;;;;2.90;1.02;;;21.80;51.80;;;;;;4947396;29;20715;-78
2022/10/04 12:08:53;;;;;;;3.92;1.10;;;21.70;51.80;;;;;;4944831;28;20236;-77
2022/10/04 12:14:30;;;;;;;3.88;0.95;;;21.60;52.90;;;;;;4963010;28;20264;-78
2022/10/04 12:17:30;;;;;;;3.13;1.00;;;21.60;53.30;;;;;;4950838;28;20217;-78
2022/10/04 12:20:27;;;;;;;1.88;0.90;;;21.60;53.70;;;;;;4950360;29;20198;-77
2022/10/04 12:23:29;;;;;;;1.50;0.90;;;21.60;53.30;;;;;;4951089;29;20269;-78
2022/10/04 12:26:31;;;;;;;2.22;0.90;;;21.70;52.00;;;;;;4946553;29;20678;-78
2022/10/04 12:29:19;;;;;;;1.95;0.80;;;21.70;52.30;;;;;;4944866;29;20272;-78
2022/10/04 12:31:52;;;;;;;1.65;0.85;;;21.70;52.50;;;;;;4947383;29;20652;-78
2022/10/04 12:34:30;;;;;;;4.43;1.00;;;21.70;52.80;;;;;;4951426;28;20308;-78
2022/10/04 12:37:12;;;;;;;3.20;0.93;;;21.80;53.00;;;;;;4953378;29;20265;-77
2022/10/04 12:39:52;;;;;;;1.63;0.90;;;21.90;52.60;;;;;;4949073;29;20194;-79
2022/10/04 12:42:35;;;;;;;2.33;0.95;;;21.90;52.70;;;;;;4954564;29;20198;-79
2022/10/04 12:45:25;;;;;;;3.72;0.80;;;21.90;52.40;;;;;;4951481;28;20198;-80
2022/10/04 12:48:10;;;;;;;3.53;0.93;;;22.00;52.40;;;;;;4956572;28;20652;-79
2022/10/04 12:50:53;;;;;;;3.67;1.15;;;22.10;53.00;;;;;;4952868;28;20213;-79
2022/10/04 12:53:33;;;;;;;2.38;1.00;;;22.20;52.80;;;;;;4949686;28;20703;-79
2022/10/04 12:56:24;;;;;;;0.80;0.65;;;22.30;52.10;;;;;;4949557;28;21643;-81
2022/10/04 12:59:10;;;;;;;2.28;0.90;;;22.30;52.00;;;;;;4946894;28;20218;-78
2022/10/04 13:01:49;;;;;;;2.63;1.00;;;22.30;51.60;;;;;;4945538;29;20656;-78
2022/10/04 13:04:31;;;;;;;1.35;0.90;;;22.30;51.50;;;;;;4946229;28;20194;-77
2022/10/04 13:07:35;;;;;;;1.35;0.65;;;22.30;51.20;;;;;;4948711;28;20225;-78
2022/10/04 13:10:25;;;;;;;2.20;0.98;;;22.40;51.10;;;;;;4953590;28;20194;-77
2022/10/04 13:13:33;;;;;;;1.98;1.00;;;22.40;50.70;;;;;;4962440;28;20283;-77
2022/10/04 13:16:21;;;;;;;1.40;0.75;;;22.40;51.10;;;;;;4873202;29;20201;-77
2022/10/04 13:19:21;;;;;;;1.70;0.82;;;22.30;50.90;;;;;;4949313;29;20290;-80
2022/10/04 13:22:16;;;;;;;1.17;0.65;;;22.50;51.40;;;;;;4948619;28;20265;-81
2022/10/04 13:25:20;;;;;;;5.32;0.98;;;22.80;51.30;;;;;;4950442;28;20245;-78
2022/10/04 13:27:53;;;;;;;1.50;0.80;;;23.10;51.00;;;;;;4952676;29;20604;-77
2022/10/04 13:30:26;;;;;;;1.60;0.70;;;23.10;50.80;;;;;;4952590;28;20301;-77
2022/10/04 13:33:12;;;;;;;1.13;0.70;;;23.10;50.40;;;;;;4947686;28;20613;-77
2022/10/04 13:35:46;;;;;;;1.33;0.70;;;23.10;50.10;;;;;;4943493;29;20636;-77
2022/10/04 13:38:46;;;;;;;9.50;1.00;;;23.00;50.20;;;;;;4951883;28;20199;-76
2022/10/04 13:41:24;;;;;;;2.38;0.63;;;22.90;49.60;;;;;;4953101;29;20202;-77
2022/10/04 13:44:25;;;;;;;0.80;0.60;;;22.70;49.10;;;;;;4949547;28;20218;-77
2022/10/04 13:47:13;;;;;;;2.60;0.90;;;22.60;49.30;;;;;;4953922;28;20655;-77
2022/10/04 13:49:58;;;;;;;0.65;0.55;;;22.50;49.20;;;;;;4949903;28;20548;-77
2022/10/04 13:58:33;;;;;;;3.15;1.15;;;22.30;50.50;;;;;;4952342;28;20199;-78
2022/10/04 14:01:26;;;;;;;1.58;0.60;;;22.30;50.30;;;;;;4951947;28;20257;-77
2022/10/04 14:04:11;;;;;;;1.70;0.60;;;22.20;50.30;;;;;;4948607;28;20293;-77
2022/10/04 14:07:06;;;;;;;1.23;0.68;;;22.20;50.30;;;;;;4949985;29;20194;-79
2022/10/04 14:10:00;;;;;;;1.38;0.60;;;22.10;50.00;;;;;;4948612;28;20209;-77
2022/10/04 14:13:07;;;;;;;2.15;0.80;;;22.00;49.90;;;;;;4956031;29;20213;-78
2022/10/04 14:15:56;;;;;;;2.00;0.95;;;21.90;50.20;;;;;;4888479;28;20235;-77
2022/10/04 14:19:00;;;;;;;2.25;0.60;;;21.80;50.40;;;;;;4952549;28;20254;-77
2022/10/04 14:22:11;;;;;;;2.15;0.90;;;21.70;50.90;;;;;;4955262;28;20262;-78
2022/10/04 14:25:15;;;;;;;1.35;0.60;;;21.60;51.20;;;;;;4915687;28;20200;-77